sensor_id;sensor_type;location;lat;lon;timestamp;P1;durP1;ratioP1;P2;durP2;ratioP2
37221;SDS011;23119;51.842;-2.230;2023-03-31T00:00:39;6.13;;;0.50;;
37221;SDS011;23119;51.842;-2.230;2023-03-31T00:03:05;4.00;;;0.30;;
37221;SDS011;23119;51.842;-2.230;2023-03-31T00:05:36;7.30;;;0.70;;
37221;SDS011;23119;51.842;-2.230;2023-03-31T00:08:09;3.78;;;0.30;;
37221;SDS011;23119;51.842;-2.230;2023-03-31T00:10:38;5.65;;;0.52;;
37221;SDS011;23119;51.842;-2.230;2023-03-31T00:13:10;5.18;;;0.47;;
37221;SDS011;23119;51.842;-2.230;2023-03-31T00:15:39;7.82;;;0.50;;
37221;SDS011;23119;51.842;-2.230;2023-03-31T00:18:08;6.53;;;0.40;;
37221;SDS011;23119;51.842;-2.230;2023-03-31T00:20:33;4.65;;;0.40;;
37221;SDS011;23119;51.842;-2.230;2023-03-31T00:23:02;3.28;;;0.40;;
37221;SDS011;23119;51.842;-2.230;2023-03-31T00:25:30;5.97;;;0.50;;
37221;SDS011;23119;51.842;-2.230;2023-03-31T00:27:59;4.75;;;1.42;;
37221;SDS011;23119;51.842;-2.230;2023-03-31T00:30:25;2.10;;;0.25;;
37221;SDS011;23119;51.842;-2.230;2023-03-31T00:32:53;3.65;;;0.40;;
37221;SDS011;23119;51.842;-2.230;2023-03-31T00:35:18;4.90;;;0.43;;
37221;SDS011;23119;51.842;-2.230;2023-03-31T00:37:53;5.38;;;0.20;;
37221;SDS011;23119;51.842;-2.230;2023-03-31T00:40:21;5.80;;;0.60;;
37221;SDS011;23119;51.842;-2.230;2023-03-31T00:42:47;1.95;;;0.30;;
37221;SDS011;23119;51.842;-2.230;2023-03-31T00:48:01;6.80;;;0.30;;
37221;SDS011;23119;51.842;-2.230;2023-03-31T00:50:34;3.45;;;0.25;;
37221;SDS011;23119;51.842;-2.230;2023-03-31T00:53:10;2.60;;;0.45;;
37221;SDS011;23119;51.842;-2.230;2023-03-31T00:55:53;3.92;;;0.30;;
37221;SDS011;23119;51.842;-2.230;2023-03-31T00:58:23;1.73;;;0.20;;
37221;SDS011;23119;51.842;-2.230;2023-03-31T01:00:57;3.05;;;0.22;;
37221;SDS011;23119;51.842;-2.230;2023-03-31T01:03:27;4.22;;;0.30;;
37221;SDS011;23119;51.842;-2.230;2023-03-31T01:05:59;3.53;;;0.10;;
37221;SDS011;23119;51.842;-2.230;2023-03-31T01:08:50;3.80;;;0.30;;
37221;SDS011;23119;51.842;-2.230;2023-03-31T01:11:19;4.47;;;1.05;;
37221;SDS011;23119;51.842;-2.230;2023-03-31T01:13:53;4.30;;;0.40;;
37221;SDS011;23119;51.842;-2.230;2023-03-31T01:16:28;6.22;;;0.60;;
37221;SDS011;23119;51.842;-2.230;2023-03-31T01:18:54;4.10;;;0.70;;
37221;SDS011;23119;51.842;-2.230;2023-03-31T01:24:28;5.28;;;0.57;;
37221;SDS011;23119;51.842;-2.230;2023-03-31T01:44:29;4.20;;;0.38;;
37221;SDS011;23119;51.842;-2.230;2023-03-31T01:50:58;3.70;;;0.40;;
37221;SDS011;23119;51.842;-2.230;2023-03-31T01:55:59;6.18;;;0.40;;
37221;SDS011;23119;51.842;-2.230;2023-03-31T01:58:26;4.03;;;0.50;;
37221;SDS011;23119;51.842;-2.230;2023-03-31T02:01:01;5.50;;;0.20;;
37221;SDS011;23119;51.842;-2.230;2023-03-31T02:03:46;6.68;;;0.70;;
37221;SDS011;23119;51.842;-2.230;2023-03-31T02:06:20;6.35;;;0.55;;
37221;SDS011;23119;51.842;-2.230;2023-03-31T02:08:54;5.25;;;0.55;;
37221;SDS011;23119;51.842;-2.230;2023-03-31T02:11:27;8.95;;;0.82;;
37221;SDS011;23119;51.842;-2.230;2023-03-31T02:14:04;8.57;;;0.90;;
37221;SDS011;23119;51.842;-2.230;2023-03-31T02:16:35;10.77;;;0.90;;
37221;SDS011;23119;51.842;-2.230;2023-03-31T02:19:07;12.93;;;1.27;;
37221;SDS011;23119;51.842;-2.230;2023-03-31T02:21:35;10.43;;;0.70;;
37221;SDS011;23119;51.842;-2.230;2023-03-31T02:24:06;12.65;;;1.92;;
37221;SDS011;23119;51.842;-2.230;2023-03-31T02:26:38;9.45;;;0.90;;
37221;SDS011;23119;51.842;-2.230;2023-03-31T02:29:08;15.02;;;1.10;;
37221;SDS011;23119;51.842;-2.230;2023-03-31T02:34:20;16.00;;;1.20;;
37221;SDS011;23119;51.842;-2.230;2023-03-31T02:36:48;11.30;;;0.98;;
37221;SDS011;23119;51.842;-2.230;2023-03-31T02:39:24;11.90;;;1.20;;
37221;SDS011;23119;51.842;-2.230;2023-03-31T02:41:53;20.77;;;1.60;;
37221;SDS011;23119;51.842;-2.230;2023-03-31T02:44:19;19.30;;;1.80;;
37221;SDS011;23119;51.842;-2.230;2023-03-31T02:46:50;11.63;;;0.95;;
37221;SDS011;23119;51.842;-2.230;2023-03-31T02:49:16;14.40;;;0.90;;
37221;SDS011;23119;51.842;-2.230;2023-03-31T03:05:34;18.60;;;1.45;;
37221;SDS011;23119;51.842;-2.230;2023-03-31T03:11:06;23.55;;;2.10;;
37221;SDS011;23119;51.842;-2.230;2023-03-31T03:16:25;15.40;;;1.52;;
37221;SDS011;23119;51.842;-2.230;2023-03-31T03:19:01;23.17;;;2.40;;
37221;SDS011;23119;51.842;-2.230;2023-03-31T03:21:28;21.23;;;4.30;;
37221;SDS011;23119;51.842;-2.230;2023-03-31T03:23:57;24.65;;;1.92;;
37221;SDS011;23119;51.842;-2.230;2023-03-31T03:26:26;19.77;;;1.92;;
37221;SDS011;23119;51.842;-2.230;2023-03-31T03:28:53;17.70;;;2.00;;
37221;SDS011;23119;51.842;-2.230;2023-03-31T03:31:23;16.60;;;1.73;;
37221;SDS011;23119;51.842;-2.230;2023-03-31T03:33:51;12.40;;;1.13;;
37221;SDS011;23119;51.842;-2.230;2023-03-31T03:36:17;11.65;;;0.80;;
37221;SDS011;23119;51.842;-2.230;2023-03-31T03:38:47;12.43;;;1.73;;
37221;SDS011;23119;51.842;-2.230;2023-03-31T03:41:12;10.48;;;1.40;;
37221;SDS011;23119;51.842;-2.230;2023-03-31T03:43:42;7.88;;;1.15;;
37221;SDS011;23119;51.842;-2.230;2023-03-31T03:46:08;10.65;;;1.98;;
37221;SDS011;23119;51.842;-2.230;2023-03-31T03:48:34;8.27;;;0.80;;
37221;SDS011;23119;51.842;-2.230;2023-03-31T03:51:08;5.68;;;0.50;;
37221;SDS011;23119;51.842;-2.230;2023-03-31T03:53:34;7.20;;;0.80;;
37221;SDS011;23119;51.842;-2.230;2023-03-31T03:56:02;5.47;;;0.70;;
37221;SDS011;23119;51.842;-2.230;2023-03-31T03:58:28;12.07;;;0.95;;
37221;SDS011;23119;51.842;-2.230;2023-03-31T04:00:54;7.90;;;0.85;;
37221;SDS011;23119;51.842;-2.230;2023-03-31T04:03:28;5.65;;;0.65;;
37221;SDS011;23119;51.842;-2.230;2023-03-31T04:05:56;9.23;;;0.50;;
37221;SDS011;23119;51.842;-2.230;2023-03-31T04:08:22;6.32;;;0.40;;
37221;SDS011;23119;51.842;-2.230;2023-03-31T04:10:48;5.57;;;0.43;;
37221;SDS011;23119;51.842;-2.230;2023-03-31T04:13:19;3.92;;;0.50;;
37221;SDS011;23119;51.842;-2.230;2023-03-31T04:15:45;5.07;;;0.30;;
37221;SDS011;23119;51.842;-2.230;2023-03-31T04:18:14;3.00;;;0.20;;
37221;SDS011;23119;51.842;-2.230;2023-03-31T04:20:55;3.25;;;0.50;;
37221;SDS011;23119;51.842;-2.230;2023-03-31T04:23:30;4.35;;;0.30;;
37221;SDS011;23119;51.842;-2.230;2023-03-31T04:26:10;5.25;;;0.73;;
37221;SDS011;23119;51.842;-2.230;2023-03-31T04:28:37;2.45;;;0.10;;
37221;SDS011;23119;51.842;-2.230;2023-03-31T04:31:11;2.65;;;0.10;;
37221;SDS011;23119;51.842;-2.230;2023-03-31T04:33:50;2.47;;;0.20;;
37221;SDS011;23119;51.842;-2.230;2023-03-31T04:36:19;4.85;;;0.30;;
37221;SDS011;23119;51.842;-2.230;2023-03-31T04:38:50;3.42;;;0.50;;
37221;SDS011;23119;51.842;-2.230;2023-03-31T04:41:19;1.63;;;0.15;;
37221;SDS011;23119;51.842;-2.230;2023-03-31T04:43:45;6.75;;;0.20;;
37221;SDS011;23119;51.842;-2.230;2023-03-31T04:46:14;10.68;;;1.05;;
37221;SDS011;23119;51.842;-2.230;2023-03-31T04:48:43;5.65;;;0.40;;
37221;SDS011;23119;51.842;-2.230;2023-03-31T04:51:08;4.35;;;0.50;;
37221;SDS011;23119;51.842;-2.230;2023-03-31T04:53:34;3.63;;;0.43;;
37221;SDS011;23119;51.842;-2.230;2023-03-31T04:56:06;8.52;;;0.93;;
37221;SDS011;23119;51.842;-2.230;2023-03-31T04:58:32;7.97;;;0.50;;
37221;SDS011;23119;51.842;-2.230;2023-03-31T05:01:00;6.82;;;0.63;;
37221;SDS011;23119;51.842;-2.230;2023-03-31T05:03:25;6.10;;;0.95;;
37221;SDS011;23119;51.842;-2.230;2023-03-31T05:05:54;5.65;;;0.50;;
37221;SDS011;23119;51.842;-2.230;2023-03-31T05:08:19;8.70;;;0.73;;
37221;SDS011;23119;51.842;-2.230;2023-03-31T05:10:45;6.88;;;0.70;;
37221;SDS011;23119;51.842;-2.230;2023-03-31T05:13:11;9.45;;;0.70;;
37221;SDS011;23119;51.842;-2.230;2023-03-31T05:15:42;12.75;;;2.15;;
37221;SDS011;23119;51.842;-2.230;2023-03-31T05:18:09;9.85;;;1.65;;
37221;SDS011;23119;51.842;-2.230;2023-03-31T05:20:35;9.95;;;1.95;;
37221;SDS011;23119;51.842;-2.230;2023-03-31T05:23:09;9.70;;;0.60;;
37221;SDS011;23119;51.842;-2.230;2023-03-31T05:25:40;9.88;;;1.38;;
37221;SDS011;23119;51.842;-2.230;2023-03-31T05:28:10;9.93;;;0.70;;
37221;SDS011;23119;51.842;-2.230;2023-03-31T05:30:37;4.15;;;0.40;;
37221;SDS011;23119;51.842;-2.230;2023-03-31T05:33:05;10.07;;;0.60;;
37221;SDS011;23119;51.842;-2.230;2023-03-31T05:35:31;9.88;;;1.15;;
37221;SDS011;23119;51.842;-2.230;2023-03-31T05:37:57;8.98;;;0.60;;
37221;SDS011;23119;51.842;-2.230;2023-03-31T05:40:23;6.68;;;1.83;;
37221;SDS011;23119;51.842;-2.230;2023-03-31T05:42:48;10.07;;;0.80;;
37221;SDS011;23119;51.842;-2.230;2023-03-31T05:45:17;10.32;;;1.00;;
37221;SDS011;23119;51.842;-2.230;2023-03-31T05:47:48;8.45;;;1.23;;
37221;SDS011;23119;51.842;-2.230;2023-03-31T05:50:16;11.57;;;0.80;;
37221;SDS011;23119;51.842;-2.230;2023-03-31T05:53:00;5.75;;;0.52;;
37221;SDS011;23119;51.842;-2.230;2023-03-31T05:55:26;8.63;;;2.20;;
37221;SDS011;23119;51.842;-2.230;2023-03-31T05:57:52;5.35;;;0.70;;
37221;SDS011;23119;51.842;-2.230;2023-03-31T06:00:18;8.00;;;0.70;;
37221;SDS011;23119;51.842;-2.230;2023-03-31T06:02:44;4.43;;;0.60;;
37221;SDS011;23119;51.842;-2.230;2023-03-31T06:05:13;6.82;;;0.50;;
37221;SDS011;23119;51.842;-2.230;2023-03-31T06:07:43;6.20;;;0.40;;
37221;SDS011;23119;51.842;-2.230;2023-03-31T06:10:16;7.35;;;0.50;;
37221;SDS011;23119;51.842;-2.230;2023-03-31T06:12:42;3.65;;;0.40;;
37221;SDS011;23119;51.842;-2.230;2023-03-31T06:15:10;6.05;;;0.65;;
37221;SDS011;23119;51.842;-2.230;2023-03-31T06:17:47;4.45;;;0.47;;
37221;SDS011;23119;51.842;-2.230;2023-03-31T06:20:17;6.73;;;0.30;;
37221;SDS011;23119;51.842;-2.230;2023-03-31T06:22:46;6.03;;;0.47;;
37221;SDS011;23119;51.842;-2.230;2023-03-31T06:25:14;3.38;;;0.30;;
37221;SDS011;23119;51.842;-2.230;2023-03-31T06:27:40;3.40;;;0.20;;
37221;SDS011;23119;51.842;-2.230;2023-03-31T06:30:11;2.97;;;0.20;;
37221;SDS011;23119;51.842;-2.230;2023-03-31T06:32:39;1.85;;;0.10;;
37221;SDS011;23119;51.842;-2.230;2023-03-31T06:35:05;2.85;;;0.13;;
37221;SDS011;23119;51.842;-2.230;2023-03-31T06:37:31;1.88;;;0.10;;
37221;SDS011;23119;51.842;-2.230;2023-03-31T06:39:57;1.83;;;0.30;;
37221;SDS011;23119;51.842;-2.230;2023-03-31T06:42:25;2.40;;;0.30;;
37221;SDS011;23119;51.842;-2.230;2023-03-31T06:44:56;1.75;;;0.30;;
37221;SDS011;23119;51.842;-2.230;2023-03-31T06:47:23;0.63;;;0.10;;
37221;SDS011;23119;51.842;-2.230;2023-03-31T06:49:49;1.27;;;0.43;;
37221;SDS011;23119;51.842;-2.230;2023-03-31T06:52:15;2.10;;;0.10;;
37221;SDS011;23119;51.842;-2.230;2023-03-31T06:54:40;1.45;;;0.20;;
37221;SDS011;23119;51.842;-2.230;2023-03-31T06:57:09;0.77;;;0.08;;
37221;SDS011;23119;51.842;-2.230;2023-03-31T06:59:35;3.72;;;0.20;;
37221;SDS011;23119;51.842;-2.230;2023-03-31T07:02:09;1.30;;;0.10;;
37221;SDS011;23119;51.842;-2.230;2023-03-31T07:04:40;4.13;;;0.68;;
37221;SDS011;23119;51.842;-2.230;2023-03-31T07:07:06;2.40;;;0.20;;
37221;SDS011;23119;51.842;-2.230;2023-03-31T07:09:32;2.88;;;0.20;;
37221;SDS011;23119;51.842;-2.230;2023-03-31T07:11:58;2.38;;;0.20;;
37221;SDS011;23119;51.842;-2.230;2023-03-31T07:14:23;1.15;;;0.20;;
37221;SDS011;23119;51.842;-2.230;2023-03-31T07:16:52;2.13;;;0.15;;
37221;SDS011;23119;51.842;-2.230;2023-03-31T07:19:22;3.95;;;0.20;;
37221;SDS011;23119;51.842;-2.230;2023-03-31T07:21:48;3.58;;;0.30;;
37221;SDS011;23119;51.842;-2.230;2023-03-31T07:24:14;4.25;;;0.25;;
37221;SDS011;23119;51.842;-2.230;2023-03-31T07:26:48;3.92;;;0.20;;
37221;SDS011;23119;51.842;-2.230;2023-03-31T07:29:14;2.58;;;0.20;;
37221;SDS011;23119;51.842;-2.230;2023-03-31T07:31:45;4.85;;;0.20;;
37221;SDS011;23119;51.842;-2.230;2023-03-31T07:34:12;4.05;;;0.30;;
37221;SDS011;23119;51.842;-2.230;2023-03-31T07:36:37;4.07;;;0.30;;
37221;SDS011;23119;51.842;-2.230;2023-03-31T07:39:06;5.40;;;0.43;;
37221;SDS011;23119;51.842;-2.230;2023-03-31T07:41:36;4.03;;;0.32;;
37221;SDS011;23119;51.842;-2.230;2023-03-31T07:44:02;9.15;;;0.50;;
37221;SDS011;23119;51.842;-2.230;2023-03-31T07:46:28;6.30;;;0.93;;
37221;SDS011;23119;51.842;-2.230;2023-03-31T07:48:55;6.07;;;0.60;;
37221;SDS011;23119;51.842;-2.230;2023-03-31T07:51:23;10.98;;;0.88;;
37221;SDS011;23119;51.842;-2.230;2023-03-31T07:54:02;7.55;;;0.70;;
37221;SDS011;23119;51.842;-2.230;2023-03-31T07:56:34;5.15;;;0.45;;
37221;SDS011;23119;51.842;-2.230;2023-03-31T07:59:00;4.38;;;0.50;;
37221;SDS011;23119;51.842;-2.230;2023-03-31T08:01:32;9.55;;;1.67;;
37221;SDS011;23119;51.842;-2.230;2023-03-31T08:04:02;8.30;;;1.35;;
37221;SDS011;23119;51.842;-2.230;2023-03-31T08:06:28;6.95;;;0.68;;
37221;SDS011;23119;51.842;-2.230;2023-03-31T08:09:12;5.15;;;0.60;;
37221;SDS011;23119;51.842;-2.230;2023-03-31T08:11:40;2.20;;;0.40;;
37221;SDS011;23119;51.842;-2.230;2023-03-31T08:14:12;5.20;;;0.40;;
37221;SDS011;23119;51.842;-2.230;2023-03-31T08:16:41;4.10;;;0.30;;
37221;SDS011;23119;51.842;-2.230;2023-03-31T08:19:07;3.63;;;0.30;;
37221;SDS011;23119;51.842;-2.230;2023-03-31T08:21:32;3.67;;;0.20;;
37221;SDS011;23119;51.842;-2.230;2023-03-31T08:23:58;2.65;;;0.22;;
37221;SDS011;23119;51.842;-2.230;2023-03-31T08:26:26;2.33;;;0.30;;
37221;SDS011;23119;51.842;-2.230;2023-03-31T08:28:56;3.63;;;0.40;;
37221;SDS011;23119;51.842;-2.230;2023-03-31T08:31:23;2.50;;;0.30;;
37221;SDS011;23119;51.842;-2.230;2023-03-31T08:33:55;1.52;;;0.15;;
37221;SDS011;23119;51.842;-2.230;2023-03-31T08:36:24;0.20;;;0.00;;
37221;SDS011;23119;51.842;-2.230;2023-03-31T08:38:52;0.52;;;0.00;;
37221;SDS011;23119;51.842;-2.230;2023-03-31T08:43:56;0.57;;;0.00;;
37221;SDS011;23119;51.842;-2.230;2023-03-31T08:46:25;0.10;;;0.00;;
37221;SDS011;23119;51.842;-2.230;2023-03-31T08:48:57;1.02;;;0.00;;
37221;SDS011;23119;51.842;-2.230;2023-03-31T08:51:31;2.38;;;0.00;;
37221;SDS011;23119;51.842;-2.230;2023-03-31T08:54:05;1.15;;;0.00;;
37221;SDS011;23119;51.842;-2.230;2023-03-31T08:56:41;0.30;;;0.10;;
37221;SDS011;23119;51.842;-2.230;2023-03-31T08:59:16;1.55;;;0.10;;
37221;SDS011;23119;51.842;-2.230;2023-03-31T09:15:53;1.52;;;0.20;;
37221;SDS011;23119;51.842;-2.230;2023-03-31T09:18:41;1.35;;;0.10;;
37221;SDS011;23119;51.842;-2.230;2023-03-31T09:22:12;1.15;;;0.10;;
37221;SDS011;23119;51.842;-2.230;2023-03-31T09:24:17;0.77;;;0.10;;
37221;SDS011;23119;51.842;-2.230;2023-03-31T09:26:53;1.52;;;0.10;;
37221;SDS011;23119;51.842;-2.230;2023-03-31T09:31:55;1.80;;;0.20;;
37221;SDS011;23119;51.842;-2.230;2023-03-31T09:34:28;2.03;;;0.20;;
37221;SDS011;23119;51.842;-2.230;2023-03-31T09:36:58;2.45;;;0.17;;
37221;SDS011;23119;51.842;-2.230;2023-03-31T09:39:30;5.72;;;1.20;;
37221;SDS011;23119;51.842;-2.230;2023-03-31T09:41:56;4.15;;;0.30;;
37221;SDS011;23119;51.842;-2.230;2023-03-31T09:44:30;4.38;;;0.30;;
37221;SDS011;23119;51.842;-2.230;2023-03-31T09:47:05;5.30;;;0.30;;
37221;SDS011;23119;51.842;-2.230;2023-03-31T09:49:52;5.57;;;0.30;;
37221;SDS011;23119;51.842;-2.230;2023-03-31T09:52:22;4.30;;;0.35;;
37221;SDS011;23119;51.842;-2.230;2023-03-31T09:54:55;4.35;;;0.50;;
37221;SDS011;23119;51.842;-2.230;2023-03-31T09:57:30;6.32;;;0.70;;
37221;SDS011;23119;51.842;-2.230;2023-03-31T10:00:13;4.53;;;0.47;;
37221;SDS011;23119;51.842;-2.230;2023-03-31T10:02:51;4.43;;;0.50;;
37221;SDS011;23119;51.842;-2.230;2023-03-31T10:08:11;7.63;;;0.60;;
37221;SDS011;23119;51.842;-2.230;2023-03-31T10:13:25;3.70;;;0.40;;
37221;SDS011;23119;51.842;-2.230;2023-03-31T10:16:08;3.25;;;0.40;;
37221;SDS011;23119;51.842;-2.230;2023-03-31T10:18:46;6.03;;;0.60;;
37221;SDS011;23119;51.842;-2.230;2023-03-31T10:21:35;4.50;;;0.50;;
37221;SDS011;23119;51.842;-2.230;2023-03-31T10:24:00;4.45;;;0.50;;
37221;SDS011;23119;51.842;-2.230;2023-03-31T10:26:35;4.03;;;0.40;;
37221;SDS011;23119;51.842;-2.230;2023-03-31T10:29:07;4.20;;;0.35;;
37221;SDS011;23119;51.842;-2.230;2023-03-31T10:31:38;5.68;;;0.50;;
37221;SDS011;23119;51.842;-2.230;2023-03-31T10:34:08;3.28;;;0.40;;
37221;SDS011;23119;51.842;-2.230;2023-03-31T10:36:44;8.02;;;0.57;;
37221;SDS011;23119;51.842;-2.230;2023-03-31T10:39:15;4.15;;;0.50;;
37221;SDS011;23119;51.842;-2.230;2023-03-31T10:49:54;7.68;;;0.40;;
37221;SDS011;23119;51.842;-2.230;2023-03-31T10:52:23;3.08;;;0.30;;
37221;SDS011;23119;51.842;-2.230;2023-03-31T10:55:10;3.45;;;0.40;;
37221;SDS011;23119;51.842;-2.230;2023-03-31T10:57:54;1.63;;;0.20;;
37221;SDS011;23119;51.842;-2.230;2023-03-31T11:12:06;2.45;;;0.30;;
37221;SDS011;23119;51.842;-2.230;2023-03-31T11:31:19;1.13;;;0.17;;
37221;SDS011;23119;51.842;-2.230;2023-03-31T11:36:37;0.98;;;0.10;;
37221;SDS011;23119;51.842;-2.230;2023-03-31T11:42:28;1.40;;;0.10;;
37221;SDS011;23119;51.842;-2.230;2023-03-31T11:45:14;1.00;;;0.17;;
37221;SDS011;23119;51.842;-2.230;2023-03-31T11:47:58;0.85;;;0.10;;
37221;SDS011;23119;51.842;-2.230;2023-03-31T11:50:29;0.50;;;0.03;;
37221;SDS011;23119;51.842;-2.230;2023-03-31T11:53:10;0.60;;;0.10;;
37221;SDS011;23119;51.842;-2.230;2023-03-31T11:55:37;0.73;;;0.15;;
37221;SDS011;23119;51.842;-2.230;2023-03-31T11:58:13;0.57;;;0.10;;
37221;SDS011;23119;51.842;-2.230;2023-03-31T12:01:39;0.35;;;0.10;;
37221;SDS011;23119;51.842;-2.230;2023-03-31T12:06:22;0.40;;;0.00;;
37221;SDS011;23119;51.842;-2.230;2023-03-31T12:09:01;0.10;;;0.00;;
37221;SDS011;23119;51.842;-2.230;2023-03-31T12:11:52;1.17;;;0.10;;
37221;SDS011;23119;51.842;-2.230;2023-03-31T12:17:13;2.60;;;0.00;;
37221;SDS011;23119;51.842;-2.230;2023-03-31T12:19:52;0.57;;;0.10;;
37221;SDS011;23119;51.842;-2.230;2023-03-31T12:22:30;0.25;;;0.00;;
37221;SDS011;23119;51.842;-2.230;2023-03-31T12:24:59;0.68;;;0.10;;
37221;SDS011;23119;51.842;-2.230;2023-03-31T12:33:02;0.80;;;0.03;;
37221;SDS011;23119;51.842;-2.230;2023-03-31T12:38:26;0.00;;;0.00;;
37221;SDS011;23119;51.842;-2.230;2023-03-31T12:44:12;0.00;;;0.00;;
37221;SDS011;23119;51.842;-2.230;2023-03-31T12:52:24;0.28;;;0.00;;
37221;SDS011;23119;51.842;-2.230;2023-03-31T12:55:30;0.00;;;0.00;;
37221;SDS011;23119;51.842;-2.230;2023-03-31T12:58:42;1.38;;;0.00;;
37221;SDS011;23119;51.842;-2.230;2023-03-31T13:01:05;0.00;;;0.00;;
37221;SDS011;23119;51.842;-2.230;2023-03-31T13:07:02;0.20;;;0.15;;
37221;SDS011;23119;51.842;-2.230;2023-03-31T13:09:40;0.10;;;0.00;;
37221;SDS011;23119;51.842;-2.230;2023-03-31T13:12:08;0.08;;;0.00;;
37221;SDS011;23119;51.842;-2.230;2023-03-31T13:15:01;0.10;;;0.00;;
37221;SDS011;23119;51.842;-2.230;2023-03-31T13:17:29;1.00;;;0.00;;
37221;SDS011;23119;51.842;-2.230;2023-03-31T13:22:42;0.10;;;0.00;;
37221;SDS011;23119;51.842;-2.230;2023-03-31T13:25:25;1.35;;;0.00;;
37221;SDS011;23119;51.842;-2.230;2023-03-31T13:27:57;0.65;;;0.60;;
37221;SDS011;23119;51.842;-2.230;2023-03-31T13:33:06;2.22;;;0.00;;
37221;SDS011;23119;51.842;-2.230;2023-03-31T13:35:56;0.38;;;0.00;;
37221;SDS011;23119;51.842;-2.230;2023-03-31T13:46:50;0.03;;;0.00;;
37221;SDS011;23119;51.842;-2.230;2023-03-31T13:49:50;0.32;;;0.00;;
37221;SDS011;23119;51.842;-2.230;2023-03-31T13:58:26;0.20;;;0.00;;
37221;SDS011;23119;51.842;-2.230;2023-03-31T14:06:40;1.48;;;0.00;;
37221;SDS011;23119;51.842;-2.230;2023-03-31T14:09:28;0.20;;;0.00;;
37221;SDS011;23119;51.842;-2.230;2023-03-31T14:12:18;0.40;;;0.03;;
37221;SDS011;23119;51.842;-2.230;2023-03-31T14:14:49;0.57;;;0.00;;
37221;SDS011;23119;51.842;-2.230;2023-03-31T14:17:25;2.95;;;0.00;;
37221;SDS011;23119;51.842;-2.230;2023-03-31T14:22:52;0.80;;;0.00;;
37221;SDS011;23119;51.842;-2.230;2023-03-31T14:36:59;1.40;;;0.10;;
37221;SDS011;23119;51.842;-2.230;2023-03-31T14:39:45;0.93;;;0.10;;
37221;SDS011;23119;51.842;-2.230;2023-03-31T14:44:54;1.63;;;0.17;;
37221;SDS011;23119;51.842;-2.230;2023-03-31T14:47:22;0.13;;;0.05;;
37221;SDS011;23119;51.842;-2.230;2023-03-31T14:52:48;2.17;;;0.10;;
37221;SDS011;23119;51.842;-2.230;2023-03-31T14:55:25;0.55;;;0.20;;
37221;SDS011;23119;51.842;-2.230;2023-03-31T14:57:53;1.52;;;0.20;;
37221;SDS011;23119;51.842;-2.230;2023-03-31T15:00:24;2.25;;;0.20;;
37221;SDS011;23119;51.842;-2.230;2023-03-31T15:02:55;0.30;;;0.20;;
37221;SDS011;23119;51.842;-2.230;2023-03-31T15:08:03;0.57;;;0.17;;
37221;SDS011;23119;51.842;-2.230;2023-03-31T15:10:52;1.52;;;0.10;;
37221;SDS011;23119;51.842;-2.230;2023-03-31T15:13:24;0.30;;;0.20;;
37221;SDS011;23119;51.842;-2.230;2023-03-31T15:15:55;0.43;;;0.20;;
37221;SDS011;23119;51.842;-2.230;2023-03-31T15:18:24;0.30;;;0.20;;
37221;SDS011;23119;51.842;-2.230;2023-03-31T15:20:54;1.30;;;0.20;;
37221;SDS011;23119;51.842;-2.230;2023-03-31T15:26:00;0.77;;;0.20;;
37221;SDS011;23119;51.842;-2.230;2023-03-31T15:28:38;1.25;;;0.00;;
37221;SDS011;23119;51.842;-2.230;2023-03-31T15:31:21;1.45;;;0.20;;
37221;SDS011;23119;51.842;-2.230;2023-03-31T15:33:58;0.90;;;0.13;;
37221;SDS011;23119;51.842;-2.230;2023-03-31T15:36:26;0.63;;;0.20;;
37221;SDS011;23119;51.842;-2.230;2023-03-31T15:38:57;0.50;;;0.20;;
37221;SDS011;23119;51.842;-2.230;2023-03-31T15:41:28;2.38;;;0.10;;
37221;SDS011;23119;51.842;-2.230;2023-03-31T15:44:05;0.63;;;0.20;;
37221;SDS011;23119;51.842;-2.230;2023-03-31T15:46:56;1.52;;;0.20;;
37221;SDS011;23119;51.842;-2.230;2023-03-31T15:49:33;0.90;;;0.20;;
37221;SDS011;23119;51.842;-2.230;2023-03-31T15:52:02;1.77;;;0.20;;
37221;SDS011;23119;51.842;-2.230;2023-03-31T15:54:39;3.50;;;0.30;;
37221;SDS011;23119;51.842;-2.230;2023-03-31T15:57:06;0.82;;;0.28;;
37221;SDS011;23119;51.842;-2.230;2023-03-31T15:59:48;2.20;;;0.20;;
37221;SDS011;23119;51.842;-2.230;2023-03-31T16:02:22;1.13;;;0.20;;
37221;SDS011;23119;51.842;-2.230;2023-03-31T16:05:00;1.45;;;0.10;;
37221;SDS011;23119;51.842;-2.230;2023-03-31T16:07:34;1.15;;;0.20;;
37221;SDS011;23119;51.842;-2.230;2023-03-31T16:10:18;2.35;;;0.20;;
37221;SDS011;23119;51.842;-2.230;2023-03-31T16:13:05;0.90;;;0.20;;
37221;SDS011;23119;51.842;-2.230;2023-03-31T16:15:41;1.85;;;0.20;;
37221;SDS011;23119;51.842;-2.230;2023-03-31T16:18:12;1.13;;;0.20;;
37221;SDS011;23119;51.842;-2.230;2023-03-31T16:20:44;1.65;;;0.30;;
37221;SDS011;23119;51.842;-2.230;2023-03-31T16:23:18;1.52;;;0.60;;
37221;SDS011;23119;51.842;-2.230;2023-03-31T16:25:48;1.88;;;0.50;;
37221;SDS011;23119;51.842;-2.230;2023-03-31T16:28:18;1.10;;;0.52;;
37221;SDS011;23119;51.842;-2.230;2023-03-31T16:30:48;2.55;;;0.60;;
37221;SDS011;23119;51.842;-2.230;2023-03-31T16:33:20;2.05;;;0.80;;
37221;SDS011;23119;51.842;-2.230;2023-03-31T16:35:51;1.75;;;0.90;;
37221;SDS011;23119;51.842;-2.230;2023-03-31T16:38:25;4.50;;;0.80;;
37221;SDS011;23119;51.842;-2.230;2023-03-31T16:40:55;2.97;;;0.50;;
37221;SDS011;23119;51.842;-2.230;2023-03-31T16:43:26;2.85;;;1.00;;
37221;SDS011;23119;51.842;-2.230;2023-03-31T16:45:59;2.72;;;0.90;;
37221;SDS011;23119;51.842;-2.230;2023-03-31T16:48:33;2.15;;;0.60;;
37221;SDS011;23119;51.842;-2.230;2023-03-31T16:51:04;1.73;;;0.45;;
37221;SDS011;23119;51.842;-2.230;2023-03-31T16:53:34;4.03;;;0.57;;
37221;SDS011;23119;51.842;-2.230;2023-03-31T16:56:20;2.17;;;0.60;;
37221;SDS011;23119;51.842;-2.230;2023-03-31T16:58:49;1.40;;;0.60;;
37221;SDS011;23119;51.842;-2.230;2023-03-31T17:01:17;1.27;;;0.60;;
37221;SDS011;23119;51.842;-2.230;2023-03-31T17:03:45;2.22;;;0.80;;
37221;SDS011;23119;51.842;-2.230;2023-03-31T17:06:12;6.10;;;0.63;;
37221;SDS011;23119;51.842;-2.230;2023-03-31T17:08:46;2.50;;;0.70;;
37221;SDS011;23119;51.842;-2.230;2023-03-31T17:11:15;1.80;;;0.88;;
37221;SDS011;23119;51.842;-2.230;2023-03-31T17:13:42;4.43;;;0.70;;
37221;SDS011;23119;51.842;-2.230;2023-03-31T17:16:08;2.08;;;0.60;;
37221;SDS011;23119;51.842;-2.230;2023-03-31T17:18:39;1.83;;;0.70;;
37221;SDS011;23119;51.842;-2.230;2023-03-31T17:21:09;2.70;;;0.80;;
37221;SDS011;23119;51.842;-2.230;2023-03-31T17:23:37;2.42;;;0.80;;
37221;SDS011;23119;51.842;-2.230;2023-03-31T17:26:22;3.00;;;0.70;;
37221;SDS011;23119;51.842;-2.230;2023-03-31T17:28:51;2.63;;;0.60;;
37221;SDS011;23119;51.842;-2.230;2023-03-31T17:31:18;1.13;;;0.50;;
37221;SDS011;23119;51.842;-2.230;2023-03-31T17:36:14;3.13;;;0.70;;
37221;SDS011;23119;51.842;-2.230;2023-03-31T17:38:43;3.22;;;0.60;;
37221;SDS011;23119;51.842;-2.230;2023-03-31T17:41:10;3.47;;;0.85;;
37221;SDS011;23119;51.842;-2.230;2023-03-31T17:43:37;2.50;;;0.68;;
37221;SDS011;23119;51.842;-2.230;2023-03-31T17:46:04;4.60;;;0.60;;
37221;SDS011;23119;51.842;-2.230;2023-03-31T17:48:33;2.90;;;0.70;;
37221;SDS011;23119;51.842;-2.230;2023-03-31T17:51:04;2.10;;;0.82;;
37221;SDS011;23119;51.842;-2.230;2023-03-31T17:53:34;1.17;;;0.47;;
37221;SDS011;23119;51.842;-2.230;2023-03-31T17:56:03;3.15;;;0.60;;
37221;SDS011;23119;51.842;-2.230;2023-03-31T17:58:29;3.35;;;0.60;;
37221;SDS011;23119;51.842;-2.230;2023-03-31T18:00:56;2.40;;;0.80;;
37221;SDS011;23119;51.842;-2.230;2023-03-31T18:03:26;1.67;;;0.50;;
37221;SDS011;23119;51.842;-2.230;2023-03-31T18:05:55;1.45;;;0.40;;
37221;SDS011;23119;51.842;-2.230;2023-03-31T18:08:24;1.80;;;0.30;;
37221;SDS011;23119;51.842;-2.230;2023-03-31T18:10:50;1.48;;;0.50;;
37221;SDS011;23119;51.842;-2.230;2023-03-31T18:13:16;1.92;;;0.47;;
37221;SDS011;23119;51.842;-2.230;2023-03-31T18:15:45;1.15;;;0.40;;
37221;SDS011;23119;51.842;-2.230;2023-03-31T18:18:15;1.92;;;0.55;;